Time;durP1;ratioP1;P1;durP2;ratioP2;P2;SDS_P1;SDS_P2;PMS_P1;PMS_P2;Temp;Humidity;BMP_temperature;BMP_pressure;BME280_temperature;BME280_humidity;BME280_pressure;Samples;Min_cycle;Max_cycle;Signal;HPM_P1;HPM_P2
2022/10/16 06:44:35;;;;;;;0.20;0.20;;;13.10;99.90;;;;;;4897948;23;20081;-79
2022/10/16 06:47:05;;;;;;;0.20;0.20;;;13.30;99.90;;;;;;4871099;29;20053;-76
2022/10/16 06:49:31;;;;;;;0.10;0.10;;;13.20;99.90;;;;;;4854470;29;20045;-76
2022/10/16 06:51:56;;;;;;;0.20;0.20;;;13.20;99.90;;;;;;4859976;29;20052;-79
2022/10/16 06:54:22;;;;;;;0.20;0.20;;;13.20;99.90;;;;;;4855814;29;20068;-75
2022/10/16 06:56:48;;;;;;;0.20;0.20;;;13.20;99.90;;;;;;4857568;29;20492;-76
2022/10/16 06:59:13;;;;;;;0.10;0.10;;;13.30;99.90;;;;;;4873392;29;20128;-76
2022/10/16 07:01:39;;;;;;;0.20;0.20;;;13.30;99.90;;;;;;4856139;29;20685;-76
2022/10/16 07:04:05;;;;;;;0.20;0.20;;;13.30;99.90;;;;;;4872885;29;20124;-77
2022/10/16 07:06:33;;;;;;;0.20;0.20;;;13.30;99.90;;;;;;4874021;29;20052;-77
2022/10/16 07:09:02;;;;;;;0.10;0.10;;;13.40;99.90;;;;;;4861415;29;20042;-77
2022/10/16 07:11:27;;;;;;;0.20;0.20;;;13.40;99.90;;;;;;4870971;29;20053;-77
2022/10/16 07:13:53;;;;;;;0.20;0.20;;;13.40;99.90;;;;;;4870551;29;20093;-77
2022/10/16 07:16:21;;;;;;;0.20;0.20;;;13.40;99.90;;;;;;4871077;29;20132;-76
2022/10/16 07:18:48;;;;;;;0.20;0.20;;;13.40;99.90;;;;;;4856058;29;20057;-76
2022/10/16 07:21:22;;;;;;;0.10;0.10;;;13.50;99.90;;;;;;4859664;29;20128;-77
2022/10/16 07:23:55;;;;;;;0.20;0.20;;;13.40;99.90;;;;;;4869552;29;20060;-76
2022/10/16 07:26:22;;;;;;;0.10;0.10;;;13.60;99.90;;;;;;4871715;29;20058;-85
2022/10/16 07:28:48;;;;;;;0.10;0.10;;;13.50;99.90;;;;;;4870511;29;20396;-78
2022/10/16 07:31:15;;;;;;;0.10;0.10;;;13.60;99.90;;;;;;4870879;29;20045;-78
2022/10/16 07:33:44;;;;;;;0.10;0.10;;;13.60;99.90;;;;;;4854952;29;20544;-79
2022/10/16 07:36:10;;;;;;;0.10;0.10;;;13.50;99.90;;;;;;4852384;29;20053;-77
2022/10/16 07:38:35;;;;;;;0.20;0.20;;;13.60;99.90;;;;;;4857874;29;20533;-78
2022/10/16 07:41:06;;;;;;;0.20;0.20;;;13.60;99.90;;;;;;4857839;29;20580;-77
2022/10/16 07:43:33;;;;;;;0.20;0.20;;;13.60;99.90;;;;;;4860228;29;20048;-78
2022/10/16 07:45:58;;;;;;;0.20;0.20;;;13.60;99.90;;;;;;4865491;29;20050;-80
2022/10/16 07:48:27;;;;;;;0.10;0.10;;;13.60;99.90;;;;;;4875799;29;20459;-78
2022/10/16 07:51:01;;;;;;;0.10;0.10;;;13.60;99.90;;;;;;4868875;29;20116;-79
2022/10/16 07:53:28;;;;;;;0.20;0.20;;;13.60;99.90;;;;;;4868680;29;20454;-78
2022/10/16 07:56:01;;;;;;;0.20;0.20;;;13.70;99.90;;;;;;4875344;29;20070;-78
2022/10/16 07:58:28;;;;;;;1.17;0.82;;;13.60;99.90;;;;;;4857364;29;20041;-78
2022/10/16 08:00:54;;;;;;;0.20;0.20;;;13.60;99.90;;;;;;4870851;29;20087;-78
2022/10/16 08:03:19;;;;;;;0.20;0.20;;;13.60;99.90;;;;;;4868221;29;20099;-79
2022/10/16 08:05:45;;;;;;;0.10;0.10;;;13.60;99.90;;;;;;4874228;29;20516;-77
2022/10/16 08:08:15;;;;;;;0.10;0.10;;;13.60;99.90;;;;;;4858525;29;20052;-78
2022/10/16 08:10:41;;;;;;;0.10;0.10;;;13.60;99.90;;;;;;4862553;29;20045;-79
2022/10/16 08:13:07;;;;;;;0.20;0.20;;;13.60;99.90;;;;;;4873671;29;20143;-79
2022/10/16 08:15:32;;;;;;;0.20;0.20;;;13.60;99.90;;;;;;4850353;29;20523;-78
2022/10/16 08:18:00;;;;;;;0.10;0.10;;;13.50;99.90;;;;;;4858881;29;20069;-78
2022/10/16 08:20:27;;;;;;;0.20;0.20;;;13.60;99.90;;;;;;4876575;29;20048;-79
2022/10/16 08:22:54;;;;;;;0.20;0.20;;;13.60;99.90;;;;;;4862611;29;20041;-78
2022/10/16 08:25:20;;;;;;;0.20;0.20;;;13.70;99.90;;;;;;4867472;29;20097;-78
2022/10/16 08:27:46;;;;;;;0.10;0.10;;;13.60;99.90;;;;;;4869727;29;20045;-79
2022/10/16 08:30:12;;;;;;;0.20;0.20;;;13.70;99.90;;;;;;4852910;29;20450;-77
2022/10/16 08:32:38;;;;;;;0.10;0.10;;;13.80;99.90;;;;;;4869972;29;20088;-78
2022/10/16 08:35:04;;;;;;;0.20;0.20;;;13.90;99.90;;;;;;4866529;29;20469;-82
2022/10/16 08:37:31;;;;;;;0.20;0.20;;;13.90;99.90;;;;;;4872089;29;20468;-81
2022/10/16 08:39:56;;;;;;;0.20;0.20;;;14.00;99.90;;;;;;4868802;29;20115;-79
2022/10/16 08:42:52;;;;;;;0.10;0.10;;;14.10;99.90;;;;;;4856606;29;20482;-80
2022/10/16 08:45:52;;;;;;;0.10;0.10;;;14.20;99.90;;;;;;4856404;29;20067;-77
2022/10/16 08:48:25;;;;;;;0.10;0.10;;;14.30;99.90;;;;;;4872927;29;20057;-77
2022/10/16 08:50:52;;;;;;;0.17;0.17;;;14.40;99.90;;;;;;4874306;29;20046;-79
2022/10/16 08:53:28;;;;;;;0.20;0.20;;;14.40;99.90;;;;;;4871763;29;20080;-79
2022/10/16 08:55:54;;;;;;;0.20;0.20;;;14.50;99.90;;;;;;4864706;29;20735;-78
2022/10/16 08:58:21;;;;;;;0.20;0.20;;;14.60;99.90;;;;;;4857843;29;20515;-77
2022/10/16 09:00:52;;;;;;;0.20;0.20;;;14.70;99.90;;;;;;4861080;29;20045;-78
2022/10/16 09:03:40;;;;;;;0.20;0.20;;;14.60;99.90;;;;;;4858398;29;20366;-78
2022/10/16 09:06:42;;;;;;;0.17;0.17;;;14.70;99.90;;;;;;4858059;29;20773;-79
2022/10/16 09:09:13;;;;;;;0.20;0.20;;;14.80;99.90;;;;;;4852228;29;20048;-78
2022/10/16 09:11:45;;;;;;;;;;;14.80;99.90;;;;;;4853605;29;20143;-79
2022/10/16 09:14:36;;;;;;;0.20;0.20;;;14.80;99.90;;;;;;4858138;29;19960;-78
2022/10/16 09:17:28;;;;;;;0.20;0.20;;;15.00;99.90;;;;;;4853936;29;20056;-78
2022/10/16 09:20:46;;;;;;;0.20;0.20;;;15.00;99.90;;;;;;4856318;29;20048;-78
2022/10/16 09:23:17;;;;;;;0.10;0.10;;;15.00;99.90;;;;;;4836058;29;20107;-79
2022/10/16 09:25:48;;;;;;;0.20;0.20;;;15.10;99.90;;;;;;4874001;29;20045;-79
2022/10/16 09:28:16;;;;;;;0.20;0.20;;;15.10;99.90;;;;;;4858397;29;20461;-79
2022/10/16 09:30:41;;;;;;;0.10;0.10;;;15.10;99.90;;;;;;4869312;29;20041;-79
2022/10/16 09:33:09;;;;;;;0.10;0.10;;;15.20;99.90;;;;;;4868733;29;20105;-77
2022/10/16 09:35:45;;;;;;;0.20;0.20;;;15.20;99.90;;;;;;4869931;29;20076;-76
2022/10/16 09:38:27;;;;;;;0.20;0.20;;;15.20;99.90;;;;;;4872608;29;20109;-79
2022/10/16 09:40:54;;;;;;;0.10;0.10;;;15.30;99.90;;;;;;4845313;29;20049;-78
2022/10/16 09:43:47;;;;;;;0.20;0.20;;;15.30;99.90;;;;;;4864797;29;20037;-78
2022/10/16 09:46:41;;;;;;;0.20;0.20;;;15.40;99.90;;;;;;4842371;29;20641;-78
2022/10/16 09:49:24;;;;;;;0.10;0.10;;;15.50;99.90;;;;;;4856925;29;20052;-78
2022/10/16 09:51:51;;;;;;;0.20;0.20;;;15.50;99.90;;;;;;4853737;29;20045;-78
2022/10/16 09:54:19;;;;;;;0.20;0.20;;;15.60;99.90;;;;;;4852493;29;20147;-79
2022/10/16 09:56:48;;;;;;;0.20;0.20;;;15.60;99.90;;;;;;4870747;29;20050;-79
2022/10/16 09:59:16;;;;;;;0.20;0.20;;;15.70;99.90;;;;;;4873026;29;20044;-77
2022/10/16 10:01:51;;;;;;;0.10;0.10;;;15.80;99.90;;;;;;4854796;29;20129;-79
2022/10/16 10:04:19;;;;;;;0.20;0.20;;;15.80;99.90;;;;;;4873401;29;20139;-78
2022/10/16 10:06:50;;;;;;;0.20;0.20;;;15.90;99.90;;;;;;4871856;29;20504;-78
2022/10/16 10:09:16;;;;;;;0.20;0.20;;;15.90;99.90;;;;;;4858317;29;20467;-78
2022/10/16 10:11:52;;;;;;;0.20;0.20;;;16.00;99.90;;;;;;4874177;29;20121;-79
2022/10/16 10:14:17;;;;;;;0.20;0.20;;;16.00;99.90;;;;;;4863752;29;20048;-79
2022/10/16 10:16:43;;;;;;;0.20;0.20;;;16.00;99.90;;;;;;4860836;29;20438;-79
2022/10/16 10:19:21;;;;;;;0.20;0.20;;;16.10;99.90;;;;;;4860076;29;20059;-80
2022/10/16 10:21:48;;;;;;;0.10;0.10;;;16.20;99.90;;;;;;4859801;29;20053;-79
2022/10/16 10:24:15;;;;;;;0.20;0.20;;;16.30;99.90;;;;;;4872517;29;20059;-78
2022/10/16 10:27:14;;;;;;;0.20;0.20;;;16.30;99.90;;;;;;4858908;29;20876;-80
2022/10/16 10:29:43;;;;;;;0.20;0.20;;;16.30;99.90;;;;;;4827255;29;20160;-80
2022/10/16 10:32:13;;;;;;;0.15;0.15;;;16.40;99.90;;;;;;4869572;29;20131;-80
2022/10/16 10:34:44;;;;;;;0.20;0.20;;;16.40;99.90;;;;;;4857053;29;20140;-80
2022/10/16 10:37:34;;;;;;;0.20;0.20;;;16.50;99.90;;;;;;4855075;29;20068;-78
2022/10/16 10:40:31;;;;;;;0.15;0.15;;;16.70;99.90;;;;;;4855403;29;20049;-78
2022/10/16 10:43:13;;;;;;;0.10;0.10;;;16.80;99.90;;;;;;4865088;29;20096;-78
2022/10/16 10:45:44;;;;;;;0.20;0.20;;;16.80;99.90;;;;;;4851417;29;20157;-77
2022/10/16 10:48:47;;;;;;;0.20;0.20;;;16.90;99.90;;;;;;4852944;29;20479;-78
2022/10/16 10:51:45;;;;;;;0.10;0.10;;;17.00;99.90;;;;;;4879920;29;20088;-78
2022/10/16 10:54:33;;;;;;;0.20;0.20;;;16.90;99.90;;;;;;4817163;29;20056;-77
2022/10/16 10:57:25;;;;;;;0.10;0.10;;;17.00;99.90;;;;;;4860111;29;20397;-78
2022/10/16 10:59:57;;;;;;;0.20;0.20;;;17.10;99.90;;;;;;4830805;29;20053;-77
2022/10/16 11:02:39;;;;;;;0.20;0.20;;;17.10;99.90;;;;;;4852218;29;20473;-78
2022/10/16 11:05:38;;;;;;;0.20;0.20;;;17.10;99.90;;;;;;4867343;29;21009;-78
2022/10/16 11:08:07;;;;;;;0.20;0.20;;;17.10;99.90;;;;;;4868694;29;20049;-78
2022/10/16 11:10:54;;;;;;;0.20;0.20;;;17.10;99.90;;;;;;4848268;29;20124;-78
2022/10/16 11:13:43;;;;;;;0.20;0.20;;;17.10;99.90;;;;;;4861926;29;20189;-79
2022/10/16 11:16:31;;;;;;;0.20;0.20;;;17.10;99.90;;;;;;4844661;29;20064;-78
2022/10/16 11:19:14;;;;;;;0.20;0.20;;;17.20;99.90;;;;;;4858171;29;20057;-77
2022/10/16 11:21:55;;;;;;;0.13;0.13;;;17.30;99.90;;;;;;4867312;29;20051;-79
2022/10/16 11:24:31;;;;;;;0.20;0.20;;;17.40;99.90;;;;;;4870511;29;20119;-78
2022/10/16 11:27:07;;;;;;;0.20;0.20;;;17.50;99.90;;;;;;4871967;29;20059;-78
2022/10/16 11:29:40;;;;;;;0.10;0.10;;;17.60;99.90;;;;;;4872774;29;20045;-79
2022/10/16 11:32:19;;;;;;;0.20;0.20;;;17.70;99.90;;;;;;4852597;29;20097;-79
2022/10/16 11:34:49;;;;;;;0.20;0.20;;;17.70;99.90;;;;;;4855495;29;20049;-78
2022/10/16 11:37:24;;;;;;;0.20;0.20;;;17.80;99.90;;;;;;4871887;29;20037;-79
2022/10/16 11:39:52;;;;;;;0.20;0.20;;;17.90;99.90;;;;;;4869657;29;20049;-80
2022/10/16 11:42:27;;;;;;;0.20;0.20;;;18.00;99.90;;;;;;4873340;29;20501;-79
2022/10/16 11:45:28;;;;;;;0.20;0.20;;;18.20;99.90;;;;;;4871007;29;20085;-80
2022/10/16 11:48:32;;;;;;;0.20;0.20;;;18.40;99.90;;;;;;4855076;29;20056;-80
2022/10/16 11:51:06;;;;;;;0.20;0.20;;;18.60;99.90;;;;;;4856925;29;20065;-80
2022/10/16 11:53:59;;;;;;;0.20;0.20;;;18.80;99.90;;;;;;4867839;29;20136;-79
2022/10/16 11:56:25;;;;;;;0.20;0.20;;;19.00;99.90;;;;;;4844016;29;20387;-80
2022/10/16 11:59:06;;;;;;;0.20;0.20;;;19.30;99.90;;;;;;4875049;29;20048;-80
2022/10/16 12:01:42;;;;;;;0.20;0.20;;;19.40;99.90;;;;;;4850849;29;20053;-80
2022/10/16 12:04:14;;;;;;;0.20;0.20;;;19.60;99.90;;;;;;4871337;29;20044;-80
2022/10/16 12:07:01;;;;;;;0.20;0.20;;;19.70;99.90;;;;;;4870930;29;20049;-79
2022/10/16 12:09:27;;;;;;;0.20;0.20;;;19.70;99.90;;;;;;4853421;29;20049;-79
2022/10/16 12:11:53;;;;;;;0.20;0.20;;;19.80;99.90;;;;;;4855853;29;20117;-80
2022/10/16 12:14:33;;;;;;;0.20;0.20;;;19.90;99.90;;;;;;4863873;29;20057;-80
2022/10/16 12:17:01;;;;;;;0.20;0.20;;;19.80;99.90;;;;;;4856250;29;20509;-80
2022/10/16 12:19:31;;;;;;;0.20;0.20;;;20.00;99.90;;;;;;4869957;29;20357;-80
2022/10/16 12:21:59;;;;;;;0.20;0.20;;;20.30;99.90;;;;;;4860103;29;20041;-80
2022/10/16 12:24:38;;;;;;;0.20;0.20;;;20.40;99.90;;;;;;4857656;29;20048;-80
2022/10/16 12:27:06;;;;;;;0.20;0.20;;;;;;;;;;4858585;29;20037;-81
2022/10/16 12:29:34;;;;;;;0.20;0.20;;;;;;;;;;4864912;29;20053;-82
2022/10/16 12:32:00;;;;;;;0.20;0.20;;;;;;;;;;4867676;29;20041;-81
2022/10/16 12:34:46;;;;;;;0.20;0.20;;;;;;;;;;4864166;29;20045;-81
2022/10/16 12:37:21;;;;;;;0.22;0.22;;;;;;;;;;4856613;29;20068;-81
2022/10/16 12:39:48;;;;;;;0.20;0.20;;;;;;;;;;4856000;29;20108;-81
2022/10/16 12:42:34;;;;;;;0.20;0.20;;;;;;;;;;4852577;29;20201;-81
2022/10/16 12:45:00;;;;;;;0.20;0.20;;;;;;;;;;4857669;29;20049;-81
2022/10/16 12:47:33;;;;;;;0.20;0.20;;;;;;;;;;4859509;29;20060;-80
2022/10/16 12:49:59;;;;;;;0.20;0.20;;;;;;;;;;4870080;29;20057;-80
2022/10/16 12:52:35;;;;;;;0.20;0.20;;;;;;;;;;4865539;29;20084;-80
2022/10/16 12:55:01;;;;;;;0.20;0.20;;;;;;;;;;4853977;29;20037;-81
2022/10/16 12:57:31;;;;;;;0.20;0.20;;;;;;;;;;4863954;29;20056;-80
2022/10/16 13:00:16;;;;;;;0.20;0.20;;;;;;;;;;4870834;29;20069;-80
2022/10/16 13:02:42;;;;;;;0.20;0.20;;;;;;;;;;4854390;29;20056;-81
2022/10/16 13:05:11;;;;;;;0.20;0.20;;;;;;;;;;4857049;29;20048;-80
2022/10/16 13:07:43;;;;;;;0.20;0.20;;;;;;;;;;4847926;29;20053;-81
2022/10/16 13:10:36;;;;;;;0.20;0.20;;;;;;;;;;4853529;29;20132;-80
2022/10/16 13:13:05;;;;;;;0.20;0.20;;;;;;;;;;4846789;29;20580;-80
2022/10/16 13:15:49;;;;;;;0.20;0.20;;;;;;;;;;4854210;29;20065;-81
2022/10/16 13:18:18;;;;;;;0.20;0.20;;;;;;;;;;4854875;29;20051;-81
2022/10/16 13:21:05;;;;;;;0.20;0.20;;;;;;;;;;4854159;29;20517;-80
2022/10/16 13:23:31;;;;;;;0.20;0.20;;;;;;;;;;4855545;29;20240;-80
2022/10/16 13:26:01;;;;;;;0.20;0.20;;;;;;;;;;4853486;29;20059;-80
2022/10/16 13:28:29;;;;;;;0.25;0.25;;;;;;;;;;4856610;29;20064;-80
2022/10/16 13:30:56;;;;;;;0.20;0.20;;;;;;;;;;4856673;29;20045;-81
2022/10/16 13:33:29;;;;;;;0.20;0.20;;;;;;;;;;4868694;29;20045;-81
2022/10/16 13:35:55;;;;;;;0.20;0.20;;;;;;;;;;4858948;29;20128;-80
2022/10/16 13:38:22;;;;;;;0.20;0.20;;;;;;;;;;4875241;29;20052;-81
2022/10/16 13:41:12;;;;;;;0.20;0.20;;;;;;;;;;4857996;29;20141;-80
2022/10/16 13:43:45;;;;;;;0.20;0.20;;;;;;;;;;4861211;29;20064;-80
2022/10/16 13:46:21;;;;;;;0.20;0.20;;;;;;;;;;4860276;29;20432;-80
2022/10/16 13:48:57;;;;;;;0.20;0.20;;;;;;;;;;4866381;29;20461;-81
2022/10/16 13:51:23;;;;;;;0.30;0.30;;;;;;;;;;4863605;29;20061;-80
2022/10/16 13:53:49;;;;;;;0.17;0.17;;;;;;;;;;4859775;29;20201;-80
2022/10/16 13:56:21;;;;;;;0.20;0.20;;;;;;;;;;4860080;29;20053;-80
2022/10/16 13:58:47;;;;;;;0.20;0.20;;;;;;;;;;4869166;29;20048;-81
2022/10/16 14:01:33;;;;;;;0.20;0.20;;;;;;;;;;4857606;29;20046;-80
2022/10/16 14:04:07;;;;;;;0.20;0.20;;;;;;;;;;4858960;29;20041;-80
2022/10/16 14:06:33;;;;;;;0.20;0.20;;;;;;;;;;4859543;29;20062;-79
2022/10/16 14:09:02;;;;;;;0.20;0.20;;;;;;;;;;4861725;29;20256;-80
2022/10/16 14:11:28;;;;;;;0.20;0.20;;;;;;;;;;4857324;29;20052;-80
2022/10/16 14:13:54;;;;;;;0.20;0.20;;;;;;;;;;4858976;29;20049;-80
2022/10/16 14:16:22;;;;;;;0.20;0.20;;;;;;;;;;4853536;29;20052;-80
2022/10/16 14:19:03;;;;;;;0.20;0.20;;;;;;;;;;4858665;29;20128;-80
2022/10/16 14:21:29;;;;;;;0.20;0.20;;;;;;;;;;4856402;29;20144;-80
2022/10/16 14:23:56;;;;;;;0.20;0.20;;;;;;;;;;4859260;29;20133;-79
2022/10/16 14:26:23;;;;;;;0.20;0.20;;;;;;;;;;4877515;29;20106;-79
2022/10/16 14:29:04;;;;;;;0.20;0.20;;;;;;;;;;4872038;29;20060;-81
2022/10/16 14:31:32;;;;;;;0.30;0.30;;;;;;;;;;4861122;29;20056;-79
2022/10/16 14:33:58;;;;;;;0.20;0.20;;;;;;;;;;4872646;29;20317;-80
2022/10/16 14:36:25;;;;;;;0.20;0.20;;;;;;;;;;4849645;29;20402;-79
2022/10/16 14:39:15;;;;;;;0.20;0.20;;;;;;;;;;4866736;29;20086;-80
2022/10/16 14:41:44;;;;;;;0.20;0.20;;;;;;;;;;4855832;29;20501;-80
2022/10/16 14:44:11;;;;;;;0.20;0.20;;;;;;;;;;4857705;29;20416;-80
2022/10/16 14:46:38;;;;;;;0.20;0.20;;;;;;;;;;4874656;29;20060;-78
2022/10/16 14:49:11;;;;;;;0.20;0.20;;;;;;;;;;4854880;29;20056;-80
2022/10/16 14:51:41;;;;;;;0.20;0.20;;;;;;;;;;4868046;29;20584;-80
2022/10/16 14:54:08;;;;;;;0.20;0.20;;;;;;;;;;4854427;29;20359;-80
2022/10/16 14:56:42;;;;;;;0.20;0.20;;;;;;;;;;4848161;29;20524;-80
2022/10/16 14:59:14;;;;;;;0.20;0.20;;;;;;;;;;4875101;29;20049;-81
2022/10/16 15:01:39;;;;;;;;;;;;;;;;;;4858204;29;20048;-80
2022/10/16 15:04:07;;;;;;;0.10;0.10;;;;;;;;;;4855592;29;19923;-79
2022/10/16 15:06:33;;;;;;;0.20;0.20;;;;;;;;;;4872684;29;20167;-80
2022/10/16 15:08:59;;;;;;;0.10;0.10;;;;;;;;;;4852147;29;20137;-80
2022/10/16 15:11:25;;;;;;;0.20;0.20;;;;;;;;;;4853197;29;20045;-80
2022/10/16 15:13:51;;;;;;;0.10;0.10;;;;;;;;;;4859767;29;20055;-80
2022/10/16 15:16:17;;;;;;;0.20;0.20;;;;;;;;;;4859089;29;20091;-80
2022/10/16 15:18:44;;;;;;;0.20;0.20;;;;;;;;;;4856163;29;20080;-80
2022/10/16 15:21:20;;;;;;;0.20;0.20;;;;;;;;;;4856003;29;20060;-80
2022/10/16 15:23:46;;;;;;;0.20;0.20;;;;;;;;;;4867172;29;20061;-80
2022/10/16 15:26:12;;;;;;;0.10;0.10;;;;;;;;;;4857306;29;20052;-80
2022/10/16 15:28:38;;;;;;;0.10;0.10;;;;;;;;;;4856100;29;20386;-80
2022/10/16 15:31:05;;;;;;;0.10;0.10;;;;;;;;;;4858385;29;20041;-80
2022/10/16 15:33:33;;;;;;;0.20;0.20;;;;;;;;;;4856892;29;20459;-80
2022/10/16 15:36:00;;;;;;;0.20;0.20;;;;;;;;;;4867646;29;20049;-80
2022/10/16 15:38:26;;;;;;;0.20;0.20;;;;;;;;;;4868961;29;20052;-80
2022/10/16 15:40:52;;;;;;;0.20;0.20;;;;;;;;;;4868117;29;20053;-80
2022/10/16 15:43:18;;;;;;;0.20;0.20;;;;;;;;;;4854175;29;20544;-80
2022/10/16 15:45:45;;;;;;;0.10;0.10;;;;;;;;;;4887284;29;20037;-79
2022/10/16 15:48:12;;;;;;;0.20;0.20;;;;;;;;;;4890562;29;20508;-79
2022/10/16 15:50:39;;;;;;;0.20;0.20;;;;;;;;;;4876680;29;20139;-80
2022/10/16 15:53:05;;;;;;;0.10;0.10;;;;;;;;;;4874340;29;20425;-79
2022/10/16 15:55:31;;;;;;;0.20;0.20;;;;;;;;;;4872229;29;20481;-80
2022/10/16 15:57:57;;;;;;;0.10;0.10;;;;;;;;;;4889727;29;20176;-79
2022/10/16 16:00:25;;;;;;;0.20;0.20;;;;;;;;;;4874759;29;20139;-79
2022/10/16 16:02:54;;;;;;;0.10;0.10;;;;;;;;;;4887682;29;20116;-80
2022/10/16 16:05:21;;;;;;;0.20;0.20;;;;;;;;;;4877406;29;20037;-79
2022/10/16 16:07:47;;;;;;;0.10;0.10;;;;;;;;;;4870744;29;20148;-79
2022/10/16 16:10:13;;;;;;;0.10;0.10;;;;;;;;;;4875392;29;20104;-76
2022/10/16 16:12:39;;;;;;;0.20;0.20;;;;;;;;;;4889642;29;20103;-81
2022/10/16 16:15:06;;;;;;;0.20;0.20;;;;;;;;;;4879485;29;20041;-73
2022/10/16 16:17:33;;;;;;;0.10;0.10;;;;;;;;;;4890927;29;20604;-74
2022/10/16 16:35:04;;;;;;;0.10;0.10;;;;;;;;;;4871118;29;20129;-81
2022/10/16 16:37:30;;;;;;;0.20;0.20;;;;;;;;;;4873836;29;20053;-81
2022/10/16 16:39:58;;;;;;;0.17;0.17;;;;;;;;;;4876117;29;20061;-81
2022/10/16 16:42:25;;;;;;;0.20;0.20;;;;;;;;;;4877396;29;20432;-81
2022/10/16 16:44:51;;;;;;;0.10;0.10;;;;;;;;;;4877914;29;20047;-82
2022/10/16 16:47:17;;;;;;;0.10;0.10;;;;;;;;;;4877623;29;20072;-81
2022/10/16 16:49:43;;;;;;;0.10;0.10;;;;;;;;;;4894667;29;20079;-81
2022/10/16 16:52:09;;;;;;;0.20;0.20;;;;;;;;;;4893855;29;20339;-82
2022/10/16 16:54:35;;;;;;;0.20;0.20;;;;;;;;;;4894791;29;20083;-83
2022/10/16 16:57:01;;;;;;;0.10;0.10;;;;;;;;;;4894877;29;20115;-82
2022/10/16 16:59:27;;;;;;;0.20;0.20;;;;;;;;;;4895006;29;20048;-82
2022/10/16 17:01:53;;;;;;;0.10;0.10;;;;;;;;;;4877309;29;20048;-81
2022/10/16 17:04:19;;;;;;;0.10;0.10;;;;;;;;;;4896521;29;20131;-82
2022/10/16 17:06:45;;;;;;;0.10;0.10;;;;;;;;;;4876777;29;20135;-82
2022/10/16 17:09:13;;;;;;;0.10;0.10;;;;;;;;;;4876404;29;20056;-81
2022/10/16 17:11:41;;;;;;;0.10;0.10;;;;;;;;;;4892581;29;20084;-80
2022/10/16 17:14:08;;;;;;;0.10;0.10;;;;;;;;;;4877063;29;20041;-81
2022/10/16 17:16:35;;;;;;;0.20;0.20;;;;;;;;;;4877217;29;20150;-81
2022/10/16 17:19:03;;;;;;;0.10;0.10;;;;;;;;;;4876093;29;20048;-80
2022/10/16 17:21:30;;;;;;;0.20;0.20;;;;;;;;;;4893085;29;20377;-81
2022/10/16 17:23:56;;;;;;;0.20;0.20;;;;;;;;;;4893827;29;20080;-81
2022/10/16 17:26:22;;;;;;;0.20;0.20;;;;;;;;;;4891682;29;20791;-80
2022/10/16 17:28:53;;;;;;;0.20;0.20;;;;;;;;;;4875779;29;20091;-80
2022/10/16 17:31:20;;;;;;;0.20;0.20;;;;;;;;;;4892452;29;20049;-81
2022/10/16 17:33:46;;;;;;;0.20;0.20;;;;;;;;;;4892425;29;20697;-81
2022/10/16 17:36:13;;;;;;;0.20;0.20;;;;;;;;;;4877551;29;20183;-80
2022/10/16 17:38:40;;;;;;;0.20;0.20;;;;;;;;;;4875017;29;20108;-80
2022/10/16 17:41:10;;;;;;;0.10;0.10;;;;;;;;;;4892919;29;20120;-80
2022/10/16 17:43:37;;;;;;;0.20;0.20;;;;;;;;;;4879515;29;20064;-80
2022/10/16 17:46:03;;;;;;;0.20;0.20;;;;;;;;;;4886169;29;20100;-80
2022/10/16 17:48:29;;;;;;;0.20;0.20;;;;;;;;;;4878527;29;20044;-82
2022/10/16 17:50:55;;;;;;;0.10;0.10;;;;;;;;;;4873835;29;20044;-81
2022/10/16 17:53:21;;;;;;;0.20;0.20;;;;;;;;;;4871771;29;20409;-80
2022/10/16 17:55:47;;;;;;;0.10;0.10;;;;;;;;;;4890566;29;20055;-79
2022/10/16 17:58:13;;;;;;;0.20;0.20;;;;;;;;;;4875181;29;20056;-79
2022/10/16 18:00:39;;;;;;;0.20;0.20;;;;;;;;;;4872532;29;20074;-80
2022/10/16 18:03:05;;;;;;;0.10;0.10;;;;;;;;;;4890623;29;20199;-80
2022/10/16 18:05:32;;;;;;;0.20;0.20;;;;;;;;;;4872982;29;20048;-79
2022/10/16 18:07:58;;;;;;;0.20;0.20;;;;;;;;;;4873489;29;20040;-80
2022/10/16 18:10:24;;;;;;;0.20;0.20;;;;;;;;;;4871370;29;20055;-80
2022/10/16 18:12:50;;;;;;;0.10;0.10;;;;;;;;;;4887776;29;20104;-80
2022/10/16 18:15:16;;;;;;;0.20;0.20;;;;;;;;;;4872774;29;20068;-81
2022/10/16 18:17:43;;;;;;;0.20;0.20;;;;;;;;;;4871968;29;20041;-81
2022/10/16 18:20:09;;;;;;;0.10;0.10;;;;;;;;;;4870699;29;20266;-81
2022/10/16 18:22:35;;;;;;;0.20;0.20;;;;;;;;;;4872291;29;20048;-82
2022/10/16 18:25:03;;;;;;;0.17;0.17;;;;;;;;;;4878095;29;20128;-81
2022/10/16 18:27:29;;;;;;;0.10;0.10;;;;;;;;;;4875237;29;20495;-82
2022/10/16 18:29:56;;;;;;;0.10;0.10;;;;;;;;;;4876083;29;20915;-83
2022/10/16 18:32:23;;;;;;;0.10;0.10;;;;;;;;;;4892105;29;20080;-82
2022/10/16 18:34:49;;;;;;;0.10;0.10;;;;;;;;;;4875340;29;20040;-82
2022/10/16 18:37:15;;;;;;;0.10;0.10;;;;;;;;;;4891334;29;20496;-83
2022/10/16 18:39:41;;;;;;;0.20;0.20;;;;;;;;;;4873791;29;20164;-83
2022/10/16 18:42:09;;;;;;;0.10;0.10;;;;;;;;;;4873742;29;20478;-83
2022/10/16 18:44:35;;;;;;;0.10;0.10;;;;;;;;;;4875736;29;20404;-82
2022/10/16 18:47:01;;;;;;;0.20;0.20;;;;;;;;;;4875488;29;20060;-83
2022/10/16 18:49:28;;;;;;;0.10;0.10;;;;;;;;;;4874307;29;20054;-84
2022/10/16 18:51:55;;;;;;;0.20;0.20;;;;;;;;;;4889143;29;20167;-81
2022/10/16 18:54:22;;;;;;;0.20;0.20;;;;;;;;;;4875861;29;20518;-82
2022/10/16 18:56:48;;;;;;;0.10;0.10;;;;;;;;;;4874478;29;20127;-81
2022/10/16 18:59:14;;;;;;;0.20;0.20;;;;;;;;;;4876146;29;20072;-81
2022/10/16 19:01:41;;;;;;;0.20;0.20;;;;;;;;;;4867808;29;20075;-70
2022/10/16 19:04:08;;;;;;;0.20;0.20;;;;;;;;;;4876205;29;20112;-85
2022/10/16 19:06:45;;;;;;;0.20;0.20;;;;;;;;;;4867781;29;20060;-82
2022/10/16 19:09:12;;;;;;;0.20;0.20;;;;;;;;;;4871898;29;20047;-82
2022/10/16 19:11:38;;;;;;;0.10;0.10;;;;;;;;;;4868216;29;20052;-82
2022/10/16 19:14:04;;;;;;;0.17;0.17;;;;;;;;;;4891828;29;20052;-82
2022/10/16 19:16:32;;;;;;;0.10;0.10;;;;;;;;;;4871815;29;20053;-82
2022/10/16 19:18:59;;;;;;;0.20;0.20;;;;;;;;;;4874046;29;20052;-82
2022/10/16 19:21:26;;;;;;;0.20;0.20;;;;;;;;;;4886934;29;21012;-82
2022/10/16 19:23:56;;;;;;;0.10;0.10;;;;;;;;;;4870710;29;20493;-83
2022/10/16 19:26:23;;;;;;;0.10;0.10;;;;;;;;;;4869578;29;20056;-82
2022/10/16 19:28:50;;;;;;;0.10;0.10;;;;;;;;;;4869871;29;20049;-76
2022/10/16 19:31:17;;;;;;;0.10;0.10;;;;;;;;;;4889103;29;20036;-81
2022/10/16 19:33:43;;;;;;;0.10;0.10;;;;;;;;;;4866820;29;20087;-81
2022/10/16 19:36:16;;;;;;;0.10;0.10;;;;;;;;;;4883813;29;20468;-81
2022/10/16 19:38:43;;;;;;;0.10;0.10;;;;;;;;;;4886831;29;20104;-81
2022/10/16 19:41:11;;;;;;;0.10;0.10;;;;;;;;;;4870271;29;20044;-81
2022/10/16 19:43:37;;;;;;;0.20;0.20;;;;;;;;;;4883232;29;20437;-81
2022/10/16 19:46:10;;;;;;;0.20;0.20;;;;;;;;;;4885390;29;20053;-81
2022/10/16 19:48:36;;;;;;;0.17;0.17;;;;;;;;;;4889400;29;20115;-80
2022/10/16 19:51:03;;;;;;;0.20;0.20;;;;;;;;;;4871882;29;20449;-81
2022/10/16 19:53:29;;;;;;;0.10;0.10;;;;;;;;;;4887419;29;20050;-81
2022/10/16 19:55:55;;;;;;;0.17;0.17;;;;;;;;;;4887953;29;20051;-81
2022/10/16 19:58:21;;;;;;;0.10;0.10;;;;;;;;;;4871642;29;20052;-81
2022/10/16 20:00:47;;;;;;;0.10;0.10;;;;;;;;;;4869026;29;20214;-81
2022/10/16 20:03:14;;;;;;;0.20;0.20;;;;;;;;;;4870039;29;20104;-81
2022/10/16 20:05:40;;;;;;;0.20;0.20;;;;;;;;;;4885333;29;20055;-80
2022/10/16 20:08:06;;;;;;;0.20;0.20;;;;;;;;;;4870137;29;20072;-81
2022/10/16 20:10:32;;;;;;;0.13;0.13;;;;;;;;;;4873619;29;20818;-81
2022/10/16 20:12:58;;;;;;;0.10;0.10;;;;;;;;;;4889351;29;20056;-81
2022/10/16 20:15:24;;;;;;;0.10;0.10;;;;;;;;;;4887239;29;20274;-80
2022/10/16 20:17:50;;;;;;;0.10;0.10;;;;;;;;;;4882183;29;20495;-81
2022/10/16 20:20:16;;;;;;;0.10;0.10;;;;;;;;;;4885415;29;20127;-82
2022/10/16 20:22:42;;;;;;;0.20;0.20;;;;;;;;;;4870981;29;20059;-81
2022/10/16 20:25:08;;;;;;;0.20;0.20;;;;;;;;;;4868618;29;20044;-81
2022/10/16 20:27:34;;;;;;;0.17;0.17;;;;;;;;;;4880993;29;20136;-81
2022/10/16 20:30:00;;;;;;;0.20;0.20;;;;;;;;;;4866787;29;20135;-81
2022/10/16 20:32:26;;;;;;;0.10;0.10;;;;;;;;;;4866897;29;20378;-80
2022/10/16 20:34:52;;;;;;;0.10;0.10;;;;;;;;;;4867653;29;20037;-80
2022/10/16 20:37:18;;;;;;;0.20;0.20;;;;;;;;;;4868935;29;20079;-80
2022/10/16 20:39:44;;;;;;;0.20;0.20;;;;;;;;;;4870867;29;20626;-80
2022/10/16 20:42:10;;;;;;;0.20;0.20;;;;;;;;;;4871136;29;20393;-81
2022/10/16 20:44:36;;;;;;;0.10;0.10;;;;;;;;;;4867553;29;20072;-80
2022/10/16 20:47:02;;;;;;;0.20;0.20;;;;;;;;;;4881838;29;20052;-80
2022/10/16 20:49:28;;;;;;;0.20;0.20;;;;;;;;;;4882603;29;20108;-81
2022/10/16 20:51:54;;;;;;;0.20;0.20;;;;;;;;;;4869686;29;20048;-80
2022/10/16 20:54:21;;;;;;;0.20;0.20;;;;;;;;;;4866482;29;20052;-80
2022/10/16 20:56:47;;;;;;;0.10;0.10;;;;;;;;;;4869227;29;20419;-80
2022/10/16 20:59:13;;;;;;;0.10;0.10;;;;;;;;;;4867614;29;20044;-81
2022/10/16 21:01:39;;;;;;;0.17;0.17;;;;;;;;;;4885035;29;20052;-81
2022/10/16 21:04:07;;;;;;;0.10;0.10;;;;;;;;;;4865894;29;20052;-81
2022/10/16 21:06:34;;;;;;;0.20;0.20;;;;;;;;;;4865581;29;20499;-81
2022/10/16 21:09:05;;;;;;;0.20;0.20;;;;;;;;;;4874819;29;20032;-81
2022/10/16 21:11:32;;;;;;;0.20;0.20;;;;;;;;;;4884610;29;20424;-81